Metar z połowy godziny Komunikat METAR ze strony awiacja.imgw.pl Metar Mil EPCE METAR EPCE 261100Z 28008KT 9999 BKN008 OVC030 00/M01 Q1005 RMK 002 094 8/5=